createdAt,value
2022-12-11T00:00:25.476Z,101337.84
2022-12-11T00:02:51.991Z,101334.41
2022-12-11T00:05:18.574Z,101329.31
2022-12-11T00:07:45.005Z,101334.41
2022-12-11T00:10:11.456Z,101330.13
2022-12-11T00:12:37.856Z,101325.88
2022-12-11T00:15:04.563Z,101327.59
2022-12-11T00:17:30.984Z,101334.41
2022-12-11T00:19:57.370Z,101322.44
2022-12-11T00:22:23.825Z,101324.16
2022-12-11T00:24:51.274Z,101330.13
2022-12-11T00:27:17.685Z,101332.66
2022-12-11T00:29:44.252Z,101329.28
2022-12-11T00:32:10.677Z,101335.25
2022-12-11T00:34:37.180Z,101329.28
2022-12-11T00:37:03.749Z,101329.25
2022-12-11T00:39:30.210Z,101329.25
2022-12-11T00:41:56.712Z,101327.53
2022-12-11T00:44:23.071Z,101324.13
2022-12-11T00:46:49.642Z,101321.56
2022-12-11T00:49:16.312Z,101313.88
2022-12-11T00:51:42.706Z,101310.44
2022-12-11T00:54:09.126Z,101314.72
2022-12-11T00:56:35.523Z,101313.88
2022-12-11T00:59:01.947Z,101306.19
2022-12-11T01:01:28.360Z,101306.16
2022-12-11T01:03:54.843Z,101311.25
2022-12-11T01:06:26.991Z,101307.84
2022-12-11T01:09:14.472Z,101308.69
2022-12-11T01:11:42.931Z,101301.88
2022-12-11T01:14:12.997Z,101297.59
2022-12-11T01:16:39.506Z,101303.56
2022-12-11T01:19:05.999Z,101300.16
2022-12-11T01:21:32.459Z,101309.53
2022-12-11T01:23:58.943Z,101306.13
2022-12-11T01:26:25.672Z,101306.97
2022-12-11T01:28:52.256Z,101307.81
2022-12-11T01:31:20.024Z,101311.25
2022-12-11T01:33:46.723Z,101312.97
2022-12-11T01:36:19.416Z,101314.66
2022-12-11T01:38:48.205Z,101312.94
2022-12-11T01:41:15.806Z,101312.94
2022-12-11T01:44:21.161Z,101307.81
2022-12-11T01:46:47.598Z,101314.66
2022-12-11T01:49:16.613Z,101313.78
2022-12-11T01:51:53.344Z,101311.22
2022-12-11T01:54:23.476Z,101309.50
2022-12-11T01:56:52.967Z,101312.94
2022-12-11T01:59:24.597Z,101318.91
2022-12-11T02:02:03.177Z,101311.22
2022-12-11T02:04:30.908Z,101306.94
2022-12-11T02:06:57.474Z,101305.25
2022-12-11T02:09:26.997Z,101304.38
2022-12-11T02:12:08.620Z,101295.84
2022-12-11T02:14:57.233Z,101296.66
2022-12-11T02:17:29.200Z,101296.66
2022-12-11T02:20:11.529Z,101291.53
2022-12-11T02:23:15.286Z,101294.94
2022-12-11T02:26:12.883Z,101285.53
2022-12-11T02:29:00.161Z,101286.38
2022-12-11T02:31:36.423Z,101270.97
2022-12-11T02:34:02.844Z,101277.81
2022-12-11T02:36:35.043Z,101276.13
2022-12-11T02:39:03.665Z,101271.84
2022-12-11T02:41:32.410Z,101272.69
2022-12-11T02:44:01.376Z,101272.69
2022-12-11T02:46:29.547Z,101263.28
2022-12-11T02:48:56.585Z,101269.25
2022-12-11T02:51:28.570Z,101276.06
2022-12-11T02:53:58.879Z,101267.50
2022-12-11T02:56:42.039Z,101283.72
2022-12-11T02:59:18.979Z,101277.75
2022-12-11T03:01:46.597Z,101272.63
2022-12-11T03:04:13.499Z,101281.19
2022-12-11T03:06:44.826Z,101279.47
2022-12-11T03:09:11.282Z,101276.88
2022-12-11T03:11:37.745Z,101274.34
2022-12-11T03:14:05.311Z,101274.34
2022-12-11T03:16:36.618Z,101276.91
2022-12-11T03:19:10.488Z,101276.03
2022-12-11T03:21:45.533Z,101277.72
2022-12-11T03:24:18.593Z,101284.53
2022-12-11T03:26:56.331Z,101281.13
2022-12-11T03:29:29.822Z,101282.84
2022-12-11T03:32:12.182Z,101281.97
2022-12-11T03:34:44.526Z,101272.59
2022-12-11T03:37:12.817Z,101280.28
2022-12-11T03:39:44.258Z,101279.41
2022-12-11T03:42:13.881Z,101280.25
2022-12-11T03:44:43.278Z,101283.69
2022-12-11T03:47:10.558Z,101282.84
2022-12-11T03:49:42.062Z,101278.56
2022-12-11T03:52:12.202Z,101279.41
2022-12-11T03:54:40.813Z,101269.16
2022-12-11T03:57:09.452Z,101272.59
2022-12-11T03:59:35.855Z,101276.00
2022-12-11T04:02:02.331Z,101261.44
2022-12-11T04:04:28.857Z,101259.75
2022-12-11T04:06:55.308Z,101268.31
2022-12-11T04:09:21.700Z,101269.16
2022-12-11T04:11:48.096Z,101268.31
2022-12-11T04:14:33.125Z,101266.59
2022-12-11T04:17:00.987Z,101266.59
2022-12-11T04:19:45.998Z,101259.75
2022-12-11T04:22:33.310Z,101264.88
2022-12-11T04:25:00.842Z,101264.03
2022-12-11T04:27:46.459Z,101260.59
2022-12-11T04:30:18.433Z,101257.16
2022-12-11T04:32:44.920Z,101254.63
2022-12-11T04:35:12.457Z,101244.38
2022-12-11T04:37:39.800Z,101246.06
2022-12-11T04:40:09.089Z,101241.81
2022-12-11T04:42:35.547Z,101253.75
2022-12-11T04:45:01.956Z,101246.94
2022-12-11T04:47:28.380Z,101245.19
2022-12-11T04:49:54.780Z,101244.34
2022-12-11T04:52:21.191Z,101236.66
2022-12-11T04:54:47.834Z,101242.63
2022-12-11T04:57:14.333Z,101244.34
2022-12-11T04:59:40.722Z,101239.22
2022-12-11T05:02:07.176Z,101239.19
2022-12-11T05:04:35.024Z,101244.31
2022-12-11T05:07:02.005Z,101250.31
2022-12-11T05:09:28.534Z,101248.59
2022-12-11T05:11:56.185Z,101251.16
2022-12-11T05:14:22.589Z,101255.44
2022-12-11T05:16:49.006Z,101259.75
2022-12-11T05:19:15.658Z,101258.00
2022-12-11T05:21:42.137Z,101254.59
2022-12-11T05:24:08.862Z,101248.63
2022-12-11T05:26:35.296Z,101243.50
2022-12-11T05:29:01.879Z,101250.34
2022-12-11T05:31:28.439Z,101248.63
2022-12-11T05:33:54.914Z,101246.91
2022-12-11T05:36:27.426Z,101240.09
2022-12-11T05:38:54.632Z,101240.09
2022-12-11T05:41:24.447Z,101234.97
2022-12-11T05:43:51.920Z,101232.41
2022-12-11T05:46:20.838Z,101221.31
2022-12-11T05:48:50.852Z,101234.09
2022-12-11T05:51:17.896Z,101235.81
2022-12-11T05:53:45.780Z,101234.97
2022-12-11T05:56:18.918Z,101240.97
2022-12-11T05:58:48.019Z,101238.38
2022-12-11T06:01:18.126Z,101237.53
2022-12-11T06:03:44.737Z,101236.66
2022-12-11T06:06:11.277Z,101229.81
2022-12-11T06:08:38.015Z,101226.41
2022-12-11T06:11:05.020Z,101224.69
2022-12-11T06:13:31.802Z,101227.25
2022-12-11T06:16:02.860Z,101229.81
2022-12-11T06:18:29.489Z,101227.25
2022-12-11T06:20:55.944Z,101227.25
2022-12-11T06:23:22.439Z,101229.81
2022-12-11T06:25:49.097Z,101228.09
2022-12-11T06:28:15.527Z,101230.66
2022-12-11T06:30:41.996Z,101234.09
2022-12-11T06:33:08.460Z,101228.09
2022-12-11T06:35:41.435Z,101228.09
2022-12-11T06:38:09.216Z,101234.97
2022-12-11T06:40:35.718Z,101233.25
2022-12-11T06:43:02.285Z,101240.09
2022-12-11T06:45:28.737Z,101237.53
2022-12-11T06:47:55.659Z,101240.09
2022-12-11T06:50:22.075Z,101242.69
2022-12-11T06:52:48.501Z,101251.22
2022-12-11T06:55:14.931Z,101245.25
2022-12-11T06:57:41.369Z,101246.13
2022-12-11T07:00:08.329Z,101246.09
2022-12-11T07:02:34.787Z,101244.41
2022-12-11T07:05:01.312Z,101241.81
2022-12-11T07:07:27.732Z,101252.09
2022-12-11T07:09:54.166Z,101246.97
2022-12-11T07:12:21.116Z,101246.09
2022-12-11T07:14:47.792Z,101252.97
2022-12-11T07:17:14.399Z,101256.41
2022-12-11T07:19:40.984Z,101254.69
2022-12-11T07:22:07.538Z,101253.84
2022-12-11T07:24:34.140Z,101251.28
2022-12-11T07:27:00.556Z,101254.69
2022-12-11T07:29:27.005Z,101252.97
2022-12-11T07:31:53.550Z,101256.41
2022-12-11T07:34:20.034Z,101253.84
2022-12-11T07:36:46.461Z,101256.41
2022-12-11T07:39:13.046Z,101264.94
2022-12-11T07:41:40.174Z,101265.78
2022-12-11T07:44:06.547Z,101260.66
2022-12-11T07:46:34.325Z,101270.06
2022-12-11T07:49:01.516Z,101272.63
2022-12-11T07:51:32.829Z,101267.53
2022-12-11T07:54:03.216Z,101268.41
2022-12-11T07:56:30.903Z,101270.09
2022-12-11T07:59:00.123Z,101268.41
2022-12-11T08:01:28.976Z,101272.66
2022-12-11T08:03:56.145Z,101276.09
2022-12-11T08:06:28.636Z,101271.78
2022-12-11T08:08:56.469Z,101275.19
2022-12-11T08:11:22.879Z,101274.34
2022-12-11T08:13:49.762Z,101271.78
2022-12-11T08:16:16.898Z,101270.09
2022-12-11T08:18:45.312Z,101274.38
2022-12-11T08:21:14.936Z,101273.56
2022-12-11T08:23:42.016Z,101276.09
2022-12-11T08:26:22.088Z,101275.25
2022-12-11T08:28:48.491Z,101277.81
2022-12-11T08:31:16.559Z,101276.13
2022-12-11T08:33:44.314Z,101277.81
2022-12-11T08:36:13.804Z,101271.00
2022-12-11T08:38:40.672Z,101268.44
2022-12-11T08:41:21.033Z,101269.28
2022-12-11T08:43:48.379Z,101276.09
2022-12-11T08:46:15.387Z,101281.25
2022-12-11T08:48:43.293Z,101282.09
2022-12-11T08:51:15.175Z,101276.97
2022-12-11T08:53:41.913Z,101281.25
2022-12-11T08:56:16.745Z,101273.53
2022-12-11T08:58:44.696Z,101265.88
2022-12-11T09:01:14.680Z,101265.06
2022-12-11T09:03:42.471Z,101270.16
2022-12-11T09:06:14.683Z,101269.28
2022-12-11T09:08:43.945Z,101268.44
2022-12-11T09:11:17.017Z,101267.59
2022-12-11T09:13:44.090Z,101257.34
2022-12-11T09:16:16.695Z,101253.91
2022-12-11T09:18:45.734Z,101254.72
2022-12-11T09:21:14.050Z,101244.47
2022-12-11T09:23:41.162Z,101250.41
2022-12-11T09:26:11.112Z,101246.09
2022-12-11T09:28:42.856Z,101245.22
2022-12-11T09:31:18.782Z,101244.28
2022-12-11T09:33:46.762Z,101250.25
2022-12-11T09:36:13.677Z,101249.38
2022-12-11T09:38:40.185Z,101241.66
2022-12-11T09:41:22.432Z,101250.16
2022-12-11T09:43:58.202Z,101255.28
2022-12-11T09:46:25.781Z,101249.25
2022-12-11T09:48:54.162Z,101249.25
2022-12-11T09:51:32.215Z,101246.69
2022-12-11T09:54:02.867Z,101240.72
2022-12-11T09:56:33.397Z,101244.09
2022-12-11T09:59:31.951Z,101244.09
2022-12-11T10:02:25.681Z,101239.72
2022-12-11T10:05:15.603Z,101235.41
2022-12-11T10:07:53.648Z,101239.69
2022-12-11T10:10:38.330Z,101239.69
2022-12-11T10:13:26.317Z,101237.09
2022-12-11T10:16:02.015Z,101241.34
2022-12-11T10:18:31.003Z,101244.75
2022-12-11T10:21:00.759Z,101240.50
2022-12-11T10:23:44.116Z,101238.75
2022-12-11T10:26:17.517Z,101235.31
2022-12-11T10:28:44.228Z,101231.84
2022-12-11T10:31:28.674Z,101228.41
2022-12-11T10:34:01.313Z,101233.47
2022-12-11T10:36:35.114Z,101230.88
2022-12-11T10:39:02.568Z,101230.91
2022-12-11T10:41:39.801Z,101228.34
2022-12-11T10:44:16.566Z,101226.59
2022-12-11T10:46:43.959Z,101228.28
2022-12-11T10:49:29.887Z,101224.03
2022-12-11T10:51:57.472Z,101230.84
2022-12-11T10:54:33.693Z,101212.91
2022-12-11T10:57:02.362Z,101216.31
2022-12-11T10:59:40.064Z,101212.88
2022-12-11T11:02:16.030Z,101217.97
2022-12-11T11:04:44.838Z,101218.78
2022-12-11T11:07:19.348Z,101212.84
2022-12-11T11:09:48.421Z,101211.97
2022-12-11T11:12:18.828Z,101215.41
2022-12-11T11:14:45.506Z,101214.50
2022-12-11T11:17:17.422Z,101206.75
2022-12-11T11:19:47.980Z,101200.78
2022-12-11T11:22:17.713Z,101205.09
2022-12-11T11:24:56.889Z,101199.97
2022-12-11T11:27:34.184Z,101198.19
2022-12-11T11:30:04.477Z,101197.25
2022-12-11T11:32:38.690Z,101187.81
2022-12-11T11:35:26.757Z,101191.22
2022-12-11T11:38:11.782Z,101194.66
2022-12-11T11:40:45.658Z,101187.78
2022-12-11T11:43:48.269Z,101201.47
2022-12-11T11:46:36.563Z,101194.56
2022-12-11T11:49:30.751Z,101187.69
2022-12-11T11:52:17.918Z,101180.84
2022-12-11T11:54:52.443Z,101181.72
2022-12-11T11:57:27.997Z,101180.00
2022-12-11T11:59:59.312Z,101178.22
2022-12-11T12:02:25.761Z,101173.09
2022-12-11T12:04:53.166Z,101184.22
2022-12-11T12:07:55.194Z,101177.38
2022-12-11T12:10:26.728Z,101174.81
2022-12-11T12:13:23.963Z,101183.41
2022-12-11T12:16:00.114Z,101173.09
2022-12-11T12:18:35.701Z,101173.91
2022-12-11T12:21:44.715Z,101170.44
2022-12-11T12:24:35.605Z,101175.53
2022-12-11T12:27:51.613Z,101167.81
2022-12-11T12:30:22.823Z,101161.84
2022-12-11T12:33:14.936Z,101167.00
2022-12-11T12:36:06.904Z,101158.38
2022-12-11T12:38:57.817Z,101172.09
2022-12-11T12:41:49.342Z,101167.88
2022-12-11T12:44:18.516Z,101164.50
2022-12-11T12:47:00.623Z,101159.41
2022-12-11T12:49:38.482Z,101164.53
2022-12-11T12:52:07.222Z,101164.53
2022-12-11T12:54:35.599Z,101157.63
2022-12-11T12:57:03.420Z,101161.00
2022-12-11T12:59:30.168Z,101161.00
2022-12-11T13:01:59.544Z,101161.00
2022-12-11T13:04:55.656Z,101157.59
2022-12-11T13:07:29.503Z,101155.88
2022-12-11T13:10:04.448Z,101156.75
2022-12-11T13:12:43.776Z,101167.03
2022-12-11T13:15:45.753Z,101160.16
2022-12-11T13:18:33.322Z,101165.31
2022-12-11T13:21:00.067Z,101167.88
2022-12-11T13:23:31.042Z,101167.88
2022-12-11T13:26:00.544Z,101168.75
2022-12-11T13:28:28.740Z,101168.75
2022-12-11T13:31:07.553Z,101169.59
2022-12-11T13:33:41.525Z,101167.03
2022-12-11T13:36:16.757Z,101168.75
2022-12-11T13:38:56.533Z,101171.31
2022-12-11T13:41:23.700Z,101174.75
2022-12-11T13:43:52.024Z,101172.19
2022-12-11T13:46:26.815Z,101177.31
2022-12-11T13:49:06.797Z,101170.44
2022-12-11T13:51:37.978Z,101170.50
2022-12-11T13:54:16.345Z,101165.38
2022-12-11T13:56:55.165Z,101169.69
2022-12-11T13:59:31.048Z,101176.47
2022-12-11T14:02:01.247Z,101172.19
2022-12-11T14:04:28.787Z,101185.91
2022-12-11T14:06:56.451Z,101179.13
2022-12-11T14:09:26.328Z,101181.69
2022-12-11T14:11:57.060Z,101182.56
2022-12-11T14:14:42.091Z,101185.13
2022-12-11T14:17:18.169Z,101180.84
2022-12-11T14:19:48.540Z,101177.44
2022-12-11T14:22:22.770Z,101176.66
2022-12-11T14:24:51.289Z,101185.22
2022-12-11T14:27:18.989Z,101180.06
2022-12-11T14:29:45.647Z,101179.28
2022-12-11T14:32:35.082Z,101176.72
2022-12-11T14:35:05.498Z,101172.44
2022-12-11T14:37:33.836Z,101181.00
2022-12-11T14:40:14.668Z,101176.69
2022-12-11T14:42:52.490Z,101175.84
2022-12-11T14:45:34.333Z,101177.50
2022-12-11T14:48:03.916Z,101176.69
2022-12-11T14:50:47.507Z,101175.00
2022-12-11T14:53:28.316Z,101174.97
2022-12-11T14:55:57.921Z,101174.97
2022-12-11T14:58:26.728Z,101181.03
2022-12-11T15:01:02.805Z,101176.78
2022-12-11T15:03:40.875Z,101181.03
2022-12-11T15:06:43.921Z,101191.31
2022-12-11T15:09:22.056Z,101187.88
2022-12-11T15:11:50.892Z,101192.19
2022-12-11T15:14:19.972Z,101189.63
2022-12-11T15:16:48.326Z,101193.91
2022-12-11T15:19:20.713Z,101191.34
2022-12-11T15:21:47.721Z,101188.78
2022-12-11T15:24:39.228Z,101196.50
2022-12-11T15:27:06.891Z,101192.25
2022-12-11T15:29:39.253Z,101199.09
2022-12-11T15:32:08.506Z,101197.38
2022-12-11T15:34:43.497Z,101194.81
2022-12-11T15:37:26.629Z,101194.81
2022-12-11T15:39:54.587Z,101199.06
2022-12-11T15:42:30.140Z,101204.22
2022-12-11T15:44:57.152Z,101211.91
2022-12-11T15:47:27.187Z,101208.50
2022-12-11T15:49:57.963Z,101210.22
2022-12-11T15:52:24.393Z,101208.50
2022-12-11T15:54:50.947Z,101202.50
2022-12-11T15:57:20.163Z,101210.22
2022-12-11T15:59:48.804Z,101212.75
2022-12-11T16:02:15.788Z,101215.38
2022-12-11T16:04:42.285Z,101213.66
2022-12-11T16:07:23.697Z,101210.25
2022-12-11T16:09:50.408Z,101210.31
2022-12-11T16:12:17.051Z,101208.56
2022-12-11T16:14:45.070Z,101204.31
2022-12-11T16:17:13.314Z,101214.56
2022-12-11T16:19:40.899Z,101206.84
2022-12-11T16:22:10.919Z,101208.56
2022-12-11T16:24:38.115Z,101206.88
2022-12-11T16:27:05.415Z,101210.31
2022-12-11T16:29:40.067Z,101212.88
2022-12-11T16:32:08.400Z,101203.47
2022-12-11T16:34:37.520Z,101203.44
2022-12-11T16:37:08.073Z,101202.59
2022-12-11T16:39:36.828Z,101205.16
2022-12-11T16:42:05.626Z,101210.25
2022-12-11T16:44:32.399Z,101201.72
2022-12-11T16:46:59.048Z,101207.69
2022-12-11T16:49:25.604Z,101201.69
2022-12-11T16:51:51.973Z,101203.41
2022-12-11T16:54:18.735Z,101196.59
2022-12-11T16:56:45.588Z,101199.16
2022-12-11T16:59:12.874Z,101199.16
2022-12-11T17:01:39.598Z,101196.59
2022-12-11T17:04:06.161Z,101200.88
2022-12-11T17:06:33.438Z,101199.22
2022-12-11T17:08:59.823Z,101202.63
2022-12-11T17:11:26.310Z,101198.34
2022-12-11T17:13:57.687Z,101194.09
2022-12-11T17:16:26.135Z,101202.63
2022-12-11T17:18:53.028Z,101200.91
2022-12-11T17:21:20.794Z,101201.78
2022-12-11T17:23:47.180Z,101200.06
2022-12-11T17:26:14.529Z,101201.78
2022-12-11T17:28:41.000Z,101199.19
2022-12-11T17:31:15.071Z,101198.38
2022-12-11T17:33:41.857Z,101204.34
2022-12-11T17:36:08.785Z,101200.97
2022-12-11T17:38:35.744Z,101206.09
2022-12-11T17:41:06.317Z,101197.53
2022-12-11T17:43:32.715Z,101204.38
2022-12-11T17:45:59.201Z,101201.84
2022-12-11T17:48:25.940Z,101204.41
2022-12-11T17:50:53.016Z,101203.56
2022-12-11T17:53:21.635Z,101201.00
2022-12-11T17:55:48.750Z,101204.41
2022-12-11T17:58:21.868Z,101207.00
2022-12-11T18:00:51.139Z,101211.28
2022-12-11T18:03:18.680Z,101213.00
2022-12-11T18:05:48.907Z,101207.91
2022-12-11T18:08:18.354Z,101207.88
2022-12-11T18:10:45.393Z,101203.59
2022-12-11T18:13:12.681Z,101214.72
2022-12-11T18:15:39.767Z,101215.59
2022-12-11T18:18:06.870Z,101213.91
2022-12-11T18:20:37.579Z,101213.88
2022-12-11T18:23:04.956Z,101214.72
2022-12-11T18:25:31.555Z,101219.00
2022-12-11T18:27:59.518Z,101217.28
2022-12-11T18:30:26.098Z,101220.72
2022-12-11T18:32:52.557Z,101218.16
2022-12-11T18:35:19.443Z,101219.91
2022-12-11T18:37:46.167Z,101214.78
2022-12-11T18:40:12.650Z,101213.94
2022-12-11T18:42:39.161Z,101219.06
2022-12-11T18:45:06.963Z,101223.34
2022-12-11T18:47:34.022Z,101223.34
2022-12-11T18:50:07.107Z,101220.78
2022-12-11T18:52:34.320Z,101222.53
2022-12-11T18:55:00.968Z,101235.34
2022-12-11T18:57:27.391Z,101229.41
2022-12-11T18:59:53.974Z,101228.56
2022-12-11T19:02:21.552Z,101232.00
2022-12-11T19:04:48.022Z,101234.59
2022-12-11T19:07:14.464Z,101226.06
2022-12-11T19:09:46.252Z,101221.78
2022-12-11T19:12:14.502Z,101214.97
2022-12-11T19:14:41.494Z,101218.41
2022-12-11T19:17:08.097Z,101226.09
2022-12-11T19:19:35.812Z,101224.38
2022-12-11T19:22:02.297Z,101223.50
2022-12-11T19:24:28.690Z,101226.06
2022-12-11T19:26:55.172Z,101218.34
2022-12-11T19:29:25.419Z,101215.81
2022-12-11T19:31:52.064Z,101225.25
2022-12-11T19:34:18.712Z,101225.28
2022-12-11T19:36:45.214Z,101221.03
2022-12-11T19:39:13.402Z,101220.19
2022-12-11T19:41:40.784Z,101222.72
2022-12-11T19:44:08.268Z,101226.13
2022-12-11T19:46:35.413Z,101230.44
2022-12-11T19:49:02.974Z,101228.72
2022-12-11T19:51:40.711Z,101224.41
2022-12-11T19:54:08.944Z,101226.13
2022-12-11T19:56:35.672Z,101221.88
2022-12-11T19:59:03.837Z,101228.72
2022-12-11T20:01:32.627Z,101232.97
2022-12-11T20:04:03.772Z,101226.13
2022-12-11T20:06:32.418Z,101228.72
2022-12-11T20:08:59.767Z,101238.13
2022-12-11T20:11:26.402Z,101227.00
2022-12-11T20:13:55.427Z,101234.72
2022-12-11T20:16:39.499Z,101236.41
2022-12-11T20:19:08.644Z,101234.72
2022-12-11T20:21:35.088Z,101238.13
2022-12-11T20:24:01.500Z,101232.16
2022-12-11T20:26:29.513Z,101238.16
2022-12-11T20:28:56.087Z,101232.19
2022-12-11T20:31:24.958Z,101233.00
2022-12-11T20:33:52.807Z,101240.69
2022-12-11T20:36:21.912Z,101238.13
2022-12-11T20:38:49.517Z,101238.16
2022-12-11T20:41:19.465Z,101242.44
2022-12-11T20:43:46.975Z,101233.06
2022-12-11T20:46:17.562Z,101233.94
2022-12-11T20:48:44.902Z,101239.91
2022-12-11T20:51:14.275Z,101243.31
2022-12-11T20:53:42.409Z,101247.59
2022-12-11T20:56:17.840Z,101245.91
2022-12-11T20:58:45.275Z,101239.09
2022-12-11T21:01:21.260Z,101251.06
2022-12-11T21:03:49.031Z,101247.66
2022-12-11T21:06:20.176Z,101249.34
2022-12-11T21:08:46.636Z,101250.19
2022-12-11T21:11:13.440Z,101247.63
2022-12-11T21:13:40.157Z,101245.03
2022-12-11T21:16:08.009Z,101246.75
2022-12-11T21:18:34.713Z,101246.75
2022-12-11T21:21:01.162Z,101247.63
2022-12-11T21:23:27.632Z,101256.19
2022-12-11T21:25:54.336Z,101243.38
2022-12-11T21:28:21.244Z,101250.19
2022-12-11T21:30:47.707Z,101246.78
2022-12-11T21:33:14.290Z,101244.22
2022-12-11T21:35:40.680Z,101243.34
2022-12-11T21:38:07.095Z,101231.34
2022-12-11T21:40:33.584Z,101236.53
2022-12-11T21:43:00.014Z,101242.50
2022-12-11T21:45:59.183Z,101239.09
2022-12-11T21:48:13.775Z,101235.66
2022-12-11T21:50:41.364Z,101239.94
2022-12-11T21:53:07.895Z,101241.69
2022-12-11T21:55:34.471Z,101251.94
2022-12-11T21:58:00.881Z,101251.94
2022-12-11T22:00:28.221Z,101252.78
2022-12-11T22:02:54.740Z,101252.78
2022-12-11T22:05:21.283Z,101260.47
2022-12-11T22:07:47.765Z,101254.50
2022-12-11T22:10:14.237Z,101266.50
2022-12-11T22:12:40.622Z,101262.22
2022-12-11T22:15:07.960Z,101268.19
2022-12-11T22:17:34.459Z,101264.81
2022-12-11T22:20:00.941Z,101260.53
2022-12-11T22:22:27.500Z,101261.38
2022-12-11T22:24:53.925Z,101263.09
2022-12-11T22:27:23.700Z,101263.94
2022-12-11T22:29:50.469Z,101261.38
2022-12-11T22:32:16.947Z,101263.97
2022-12-11T22:34:43.355Z,101268.28
2022-12-11T22:37:09.744Z,101270.84
2022-12-11T22:39:36.145Z,101270.81
2022-12-11T22:42:02.645Z,101270.81
2022-12-11T22:44:29.037Z,101274.25
2022-12-11T22:46:55.487Z,101272.56
2022-12-11T22:49:21.873Z,101276.81
2022-12-11T22:51:49.082Z,101276.81
2022-12-11T22:54:15.742Z,101279.38
2022-12-11T22:56:42.154Z,101272.56
2022-12-11T22:59:08.550Z,101273.41
2022-12-11T23:01:34.993Z,101268.28
2022-12-11T23:04:01.451Z,101271.69
2022-12-11T23:06:27.940Z,101269.16
2022-12-11T23:08:57.687Z,101268.31
2022-12-11T23:11:30.199Z,101270.88
2022-12-11T23:13:57.128Z,101272.59
2022-12-11T23:16:25.674Z,101269.19
2022-12-11T23:18:52.492Z,101269.19
2022-12-11T23:21:19.045Z,101276.00
2022-12-11T23:23:45.571Z,101272.63
2022-12-11T23:26:13.939Z,101270.06
2022-12-11T23:28:40.880Z,101272.59
2022-12-11T23:31:08.599Z,101274.31
2022-12-11T23:33:35.232Z,101270.88
2022-12-11T23:36:02.155Z,101263.16
2022-12-11T23:38:28.667Z,101276.03
2022-12-11T23:40:55.399Z,101278.59
2022-12-11T23:43:22.183Z,101277.75
2022-12-11T23:45:48.654Z,101270.88
2022-12-11T23:48:15.331Z,101272.63
2022-12-11T23:50:43.034Z,101281.16
2022-12-11T23:53:09.655Z,101275.16
2022-12-11T23:55:39.459Z,101277.75
2022-12-11T23:58:06.214Z,101269.19
